LFBG/CNG METAR and TAF weather

Enter ICAO airport designator
Station Type Date Time Source
LFBG METAR 2019/08/22 15:30 UTC NOAA

LFBG 221530Z AUTO 03009KT 350V070 CAVOK 30/06 Q1021 NOSIG


Station Type Date Time Source
LFBG Decoded METAR 2019/08/22 15:30 UTC NOAA

Station name not available
Aug 22, 2019 - 11:30 AM EDT / 2019.08.22 1530 UTC
Wind: from the NNE (030 degrees) at 10 MPH (9 KT) (direction variable):0
Visibility: greater than 7 mile(s):0
Temperature: 86 F (30 C)
Dew Point: 42 F (6 C)
Relative Humidity: 22%
Pressure (altimeter): 30.15 in. Hg (1021 hPa)
ob: LFBG 221530Z AUTO 03009KT 350V070 CAVOK 30/06 Q1021 NOSIG
cycle: 15

Station Type Date Time Source
LFBG TAF 2019/08/22 15:14 UTC NOAA

TAF LFBG 221400Z 2215/2315 04010KT CAVOK

Example: see airport list